sensor_id;sensor_type;location;lat;lon;timestamp;P1;durP1;ratioP1;P2;durP2;ratioP2
24223;SDS011;12359;49.716;9.212;2022-10-31T00:00:41;10.23;;;4.65;;
24223;SDS011;12359;49.716;9.212;2022-10-31T00:03:06;11.43;;;5.35;;
24223;SDS011;12359;49.716;9.212;2022-10-31T00:05:32;10.98;;;6.05;;
24223;SDS011;12359;49.716;9.212;2022-10-31T00:07:57;5.70;;;3.70;;
24223;SDS011;12359;49.716;9.212;2022-10-31T00:10:23;11.98;;;5.47;;
24223;SDS011;12359;49.716;9.212;2022-10-31T00:12:49;7.72;;;4.18;;
24223;SDS011;12359;49.716;9.212;2022-10-31T00:15:16;16.23;;;5.47;;
24223;SDS011;12359;49.716;9.212;2022-10-31T00:17:41;13.70;;;5.80;;
24223;SDS011;12359;49.716;9.212;2022-10-31T00:20:07;7.22;;;4.22;;
24223;SDS011;12359;49.716;9.212;2022-10-31T00:22:33;8.55;;;4.57;;
24223;SDS011;12359;49.716;9.212;2022-10-31T00:24:59;12.65;;;6.43;;
24223;SDS011;12359;49.716;9.212;2022-10-31T00:27:24;12.38;;;4.38;;
24223;SDS011;12359;49.716;9.212;2022-10-31T00:29:50;10.68;;;4.72;;
24223;SDS011;12359;49.716;9.212;2022-10-31T00:32:16;8.77;;;4.18;;
24223;SDS011;12359;49.716;9.212;2022-10-31T00:34:41;18.08;;;5.22;;
24223;SDS011;12359;49.716;9.212;2022-10-31T00:37:07;7.85;;;4.45;;
24223;SDS011;12359;49.716;9.212;2022-10-31T00:39:32;5.90;;;4.82;;
24223;SDS011;12359;49.716;9.212;2022-10-31T00:41:58;8.75;;;3.67;;
24223;SDS011;12359;49.716;9.212;2022-10-31T00:44:24;14.98;;;5.47;;
24223;SDS011;12359;49.716;9.212;2022-10-31T00:46:49;6.97;;;4.32;;
24223;SDS011;12359;49.716;9.212;2022-10-31T00:49:15;8.73;;;4.97;;
24223;SDS011;12359;49.716;9.212;2022-10-31T00:51:41;8.57;;;5.15;;
24223;SDS011;12359;49.716;9.212;2022-10-31T00:54:06;12.60;;;4.72;;
24223;SDS011;12359;49.716;9.212;2022-10-31T00:56:32;5.55;;;4.10;;
24223;SDS011;12359;49.716;9.212;2022-10-31T00:58:58;9.38;;;4.55;;
24223;SDS011;12359;49.716;9.212;2022-10-31T01:01:23;11.60;;;4.20;;
24223;SDS011;12359;49.716;9.212;2022-10-31T01:03:49;9.00;;;6.07;;
24223;SDS011;12359;49.716;9.212;2022-10-31T01:06:15;5.40;;;4.03;;
24223;SDS011;12359;49.716;9.212;2022-10-31T01:08:41;4.75;;;3.40;;
24223;SDS011;12359;49.716;9.212;2022-10-31T01:11:10;8.60;;;4.15;;
24223;SDS011;12359;49.716;9.212;2022-10-31T01:13:41;9.88;;;4.70;;
24223;SDS011;12359;49.716;9.212;2022-10-31T01:16:07;12.88;;;4.28;;
24223;SDS011;12359;49.716;9.212;2022-10-31T01:18:35;11.60;;;4.78;;
24223;SDS011;12359;49.716;9.212;2022-10-31T01:21:03;13.18;;;5.45;;
24223;SDS011;12359;49.716;9.212;2022-10-31T01:23:30;8.00;;;4.30;;
24223;SDS011;12359;49.716;9.212;2022-10-31T01:26:04;8.65;;;4.32;;
24223;SDS011;12359;49.716;9.212;2022-10-31T01:31:05;5.97;;;4.10;;
24223;SDS011;12359;49.716;9.212;2022-10-31T01:33:33;10.45;;;6.03;;
24223;SDS011;12359;49.716;9.212;2022-10-31T01:36:00;9.80;;;5.68;;
24223;SDS011;12359;49.716;9.212;2022-10-31T01:38:29;8.70;;;6.20;;
24223;SDS011;12359;49.716;9.212;2022-10-31T01:40:55;8.88;;;5.07;;
24223;SDS011;12359;49.716;9.212;2022-10-31T01:43:21;7.18;;;4.35;;
24223;SDS011;12359;49.716;9.212;2022-10-31T01:45:50;9.13;;;4.65;;
24223;SDS011;12359;49.716;9.212;2022-10-31T01:48:19;12.63;;;4.82;;
24223;SDS011;12359;49.716;9.212;2022-10-31T01:50:56;6.25;;;3.63;;
24223;SDS011;12359;49.716;9.212;2022-10-31T01:53:21;8.43;;;4.57;;
24223;SDS011;12359;49.716;9.212;2022-10-31T01:55:48;8.93;;;5.07;;
24223;SDS011;12359;49.716;9.212;2022-10-31T01:58:15;10.88;;;4.35;;
24223;SDS011;12359;49.716;9.212;2022-10-31T02:00:45;5.47;;;4.18;;
24223;SDS011;12359;49.716;9.212;2022-10-31T02:03:13;7.47;;;4.38;;
24223;SDS011;12359;49.716;9.212;2022-10-31T02:05:39;6.00;;;4.63;;
24223;SDS011;12359;49.716;9.212;2022-10-31T02:08:16;7.93;;;4.18;;
24223;SDS011;12359;49.716;9.212;2022-10-31T02:10:47;12.07;;;5.85;;
24223;SDS011;12359;49.716;9.212;2022-10-31T02:13:14;13.93;;;6.50;;
24223;SDS011;12359;49.716;9.212;2022-10-31T02:15:40;9.02;;;4.22;;
24223;SDS011;12359;49.716;9.212;2022-10-31T02:18:09;12.18;;;5.25;;
24223;SDS011;12359;49.716;9.212;2022-10-31T02:32:43;8.13;;;4.05;;
24223;SDS011;12359;49.716;9.212;2022-10-31T02:40:53;10.30;;;3.95;;
24223;SDS011;12359;49.716;9.212;2022-10-31T02:51:55;7.63;;;4.18;;
24223;SDS011;12359;49.716;9.212;2022-10-31T02:54:22;6.95;;;4.13;;
24223;SDS011;12359;49.716;9.212;2022-10-31T02:56:50;7.63;;;4.03;;
24223;SDS011;12359;49.716;9.212;2022-10-31T02:59:20;8.25;;;4.28;;
24223;SDS011;12359;49.716;9.212;2022-10-31T03:12:14;15.40;;;4.20;;
24223;SDS011;12359;49.716;9.212;2022-10-31T03:17:33;10.13;;;4.75;;
24223;SDS011;12359;49.716;9.212;2022-10-31T03:20:02;10.98;;;4.38;;
24223;SDS011;12359;49.716;9.212;2022-10-31T03:22:31;12.13;;;3.72;;
24223;SDS011;12359;49.716;9.212;2022-10-31T03:24:59;11.13;;;4.30;;
24223;SDS011;12359;49.716;9.212;2022-10-31T03:27:28;10.13;;;4.63;;
24223;SDS011;12359;49.716;9.212;2022-10-31T03:29:58;11.23;;;5.28;;
24223;SDS011;12359;49.716;9.212;2022-10-31T03:32:29;12.25;;;4.07;;
24223;SDS011;12359;49.716;9.212;2022-10-31T03:35:00;7.43;;;3.78;;
24223;SDS011;12359;49.716;9.212;2022-10-31T03:37:29;8.38;;;3.95;;
24223;SDS011;12359;49.716;9.212;2022-10-31T03:39:58;8.48;;;4.45;;
24223;SDS011;12359;49.716;9.212;2022-10-31T03:42:25;7.35;;;4.45;;
24223;SDS011;12359;49.716;9.212;2022-10-31T03:44:59;10.50;;;4.40;;
24223;SDS011;12359;49.716;9.212;2022-10-31T03:47:34;9.90;;;4.65;;
24223;SDS011;12359;49.716;9.212;2022-10-31T03:50:02;8.25;;;3.72;;
24223;SDS011;12359;49.716;9.212;2022-10-31T03:55:20;7.63;;;3.50;;
24223;SDS011;12359;49.716;9.212;2022-10-31T03:58:06;11.95;;;4.70;;
24223;SDS011;12359;49.716;9.212;2022-10-31T04:00:38;17.25;;;5.22;;
24223;SDS011;12359;49.716;9.212;2022-10-31T04:03:10;6.03;;;3.42;;
24223;SDS011;12359;49.716;9.212;2022-10-31T04:05:40;10.85;;;3.92;;
24223;SDS011;12359;49.716;9.212;2022-10-31T04:08:08;11.32;;;3.60;;
24223;SDS011;12359;49.716;9.212;2022-10-31T04:10:37;15.35;;;4.82;;
24223;SDS011;12359;49.716;9.212;2022-10-31T04:13:07;10.73;;;5.07;;
24223;SDS011;12359;49.716;9.212;2022-10-31T04:15:36;5.45;;;4.10;;
24223;SDS011;12359;49.716;9.212;2022-10-31T04:18:03;7.93;;;4.03;;
24223;SDS011;12359;49.716;9.212;2022-10-31T04:20:31;6.38;;;4.13;;
24223;SDS011;12359;49.716;9.212;2022-10-31T04:22:57;6.15;;;4.18;;
24223;SDS011;12359;49.716;9.212;2022-10-31T04:25:24;11.73;;;4.20;;
24223;SDS011;12359;49.716;9.212;2022-10-31T04:27:49;5.45;;;4.90;;
24223;SDS011;12359;49.716;9.212;2022-10-31T04:30:15;5.53;;;3.28;;
24223;SDS011;12359;49.716;9.212;2022-10-31T04:32:40;7.05;;;3.58;;
24223;SDS011;12359;49.716;9.212;2022-10-31T04:35:06;6.80;;;4.15;;
24223;SDS011;12359;49.716;9.212;2022-10-31T04:37:32;8.15;;;4.18;;
24223;SDS011;12359;49.716;9.212;2022-10-31T04:39:57;7.80;;;3.97;;
24223;SDS011;12359;49.716;9.212;2022-10-31T04:42:23;4.72;;;3.88;;
24223;SDS011;12359;49.716;9.212;2022-10-31T04:44:49;7.30;;;4.03;;
24223;SDS011;12359;49.716;9.212;2022-10-31T04:47:14;8.23;;;3.72;;
24223;SDS011;12359;49.716;9.212;2022-10-31T04:49:40;8.80;;;5.82;;
24223;SDS011;12359;49.716;9.212;2022-10-31T04:52:06;9.27;;;5.00;;
24223;SDS011;12359;49.716;9.212;2022-10-31T04:54:33;10.30;;;4.22;;
24223;SDS011;12359;49.716;9.212;2022-10-31T04:56:59;8.45;;;4.43;;
24223;SDS011;12359;49.716;9.212;2022-10-31T04:59:24;6.07;;;4.53;;
24223;SDS011;12359;49.716;9.212;2022-10-31T05:01:50;13.15;;;4.47;;
24223;SDS011;12359;49.716;9.212;2022-10-31T05:04:15;7.55;;;5.13;;
24223;SDS011;12359;49.716;9.212;2022-10-31T05:06:41;6.30;;;3.53;;
24223;SDS011;12359;49.716;9.212;2022-10-31T05:09:07;7.88;;;5.32;;
24223;SDS011;12359;49.716;9.212;2022-10-31T05:11:32;17.95;;;4.53;;
24223;SDS011;12359;49.716;9.212;2022-10-31T05:13:58;6.60;;;4.13;;
24223;SDS011;12359;49.716;9.212;2022-10-31T05:16:23;8.65;;;4.25;;
24223;SDS011;12359;49.716;9.212;2022-10-31T05:18:49;7.10;;;4.20;;
24223;SDS011;12359;49.716;9.212;2022-10-31T05:21:15;6.40;;;4.72;;
24223;SDS011;12359;49.716;9.212;2022-10-31T05:23:40;10.95;;;5.40;;
24223;SDS011;12359;49.716;9.212;2022-10-31T05:26:06;8.98;;;3.92;;
24223;SDS011;12359;49.716;9.212;2022-10-31T05:28:32;7.15;;;4.72;;
24223;SDS011;12359;49.716;9.212;2022-10-31T05:30:57;7.57;;;3.70;;
24223;SDS011;12359;49.716;9.212;2022-10-31T05:33:23;5.85;;;4.82;;
24223;SDS011;12359;49.716;9.212;2022-10-31T05:35:48;12.35;;;5.15;;
24223;SDS011;12359;49.716;9.212;2022-10-31T05:38:14;6.55;;;3.72;;
24223;SDS011;12359;49.716;9.212;2022-10-31T05:40:40;11.13;;;5.07;;
24223;SDS011;12359;49.716;9.212;2022-10-31T05:43:05;10.13;;;4.20;;
24223;SDS011;12359;49.716;9.212;2022-10-31T05:45:31;6.63;;;4.20;;
24223;SDS011;12359;49.716;9.212;2022-10-31T05:47:57;10.68;;;4.65;;
24223;SDS011;12359;49.716;9.212;2022-10-31T05:50:25;4.55;;;3.85;;
24223;SDS011;12359;49.716;9.212;2022-10-31T05:52:59;8.95;;;4.18;;
24223;SDS011;12359;49.716;9.212;2022-10-31T05:55:25;9.35;;;4.45;;
24223;SDS011;12359;49.716;9.212;2022-10-31T05:57:53;6.88;;;4.75;;
24223;SDS011;12359;49.716;9.212;2022-10-31T06:00:19;9.65;;;4.40;;
24223;SDS011;12359;49.716;9.212;2022-10-31T06:02:45;4.50;;;3.60;;
24223;SDS011;12359;49.716;9.212;2022-10-31T06:05:11;15.63;;;4.85;;
24223;SDS011;12359;49.716;9.212;2022-10-31T06:07:38;4.88;;;4.35;;
24223;SDS011;12359;49.716;9.212;2022-10-31T06:10:04;10.15;;;4.45;;
24223;SDS011;12359;49.716;9.212;2022-10-31T06:12:31;12.15;;;4.80;;
24223;SDS011;12359;49.716;9.212;2022-10-31T06:14:57;8.00;;;4.30;;
24223;SDS011;12359;49.716;9.212;2022-10-31T06:17:22;11.48;;;5.18;;
24223;SDS011;12359;49.716;9.212;2022-10-31T06:19:48;12.98;;;4.78;;
24223;SDS011;12359;49.716;9.212;2022-10-31T06:22:14;8.65;;;4.65;;
24223;SDS011;12359;49.716;9.212;2022-10-31T06:24:39;6.53;;;4.20;;
24223;SDS011;12359;49.716;9.212;2022-10-31T06:27:05;12.40;;;5.03;;
24223;SDS011;12359;49.716;9.212;2022-10-31T06:29:31;5.10;;;3.30;;
24223;SDS011;12359;49.716;9.212;2022-10-31T06:31:57;8.75;;;4.28;;
24223;SDS011;12359;49.716;9.212;2022-10-31T06:34:22;5.85;;;4.05;;
24223;SDS011;12359;49.716;9.212;2022-10-31T06:36:48;7.68;;;4.57;;
24223;SDS011;12359;49.716;9.212;2022-10-31T06:39:14;9.00;;;3.75;;
24223;SDS011;12359;49.716;9.212;2022-10-31T06:41:40;4.82;;;3.97;;
24223;SDS011;12359;49.716;9.212;2022-10-31T06:44:06;13.18;;;5.00;;
24223;SDS011;12359;49.716;9.212;2022-10-31T06:46:33;8.40;;;4.00;;
24223;SDS011;12359;49.716;9.212;2022-10-31T06:49:01;8.73;;;4.68;;
24223;SDS011;12359;49.716;9.212;2022-10-31T06:51:27;10.32;;;4.45;;
24223;SDS011;12359;49.716;9.212;2022-10-31T06:53:52;7.50;;;4.75;;
24223;SDS011;12359;49.716;9.212;2022-10-31T06:56:18;5.97;;;3.75;;
24223;SDS011;12359;49.716;9.212;2022-10-31T06:58:44;6.07;;;4.35;;
24223;SDS011;12359;49.716;9.212;2022-10-31T07:01:10;10.07;;;5.22;;
24223;SDS011;12359;49.716;9.212;2022-10-31T07:03:35;8.52;;;4.57;;
24223;SDS011;12359;49.716;9.212;2022-10-31T07:06:01;11.57;;;4.88;;
24223;SDS011;12359;49.716;9.212;2022-10-31T07:08:27;6.60;;;4.72;;
24223;SDS011;12359;49.716;9.212;2022-10-31T07:10:53;6.55;;;4.05;;
24223;SDS011;12359;49.716;9.212;2022-10-31T07:13:20;7.65;;;4.35;;
24223;SDS011;12359;49.716;9.212;2022-10-31T07:15:51;9.35;;;3.88;;
24223;SDS011;12359;49.716;9.212;2022-10-31T07:18:18;5.47;;;3.72;;
24223;SDS011;12359;49.716;9.212;2022-10-31T07:20:45;12.35;;;4.07;;
24223;SDS011;12359;49.716;9.212;2022-10-31T07:23:11;7.88;;;3.70;;
24223;SDS011;12359;49.716;9.212;2022-10-31T07:25:37;5.85;;;4.03;;
24223;SDS011;12359;49.716;9.212;2022-10-31T07:28:03;13.23;;;4.88;;
24223;SDS011;12359;49.716;9.212;2022-10-31T07:30:29;16.30;;;5.30;;
24223;SDS011;12359;49.716;9.212;2022-10-31T07:32:55;11.00;;;5.50;;
24223;SDS011;12359;49.716;9.212;2022-10-31T07:35:21;20.70;;;5.45;;
24223;SDS011;12359;49.716;9.212;2022-10-31T07:37:49;9.18;;;5.47;;
24223;SDS011;12359;49.716;9.212;2022-10-31T07:40:15;11.32;;;5.28;;
24223;SDS011;12359;49.716;9.212;2022-10-31T07:42:42;8.82;;;4.40;;
24223;SDS011;12359;49.716;9.212;2022-10-31T07:45:10;7.78;;;4.60;;
24223;SDS011;12359;49.716;9.212;2022-10-31T07:47:38;6.35;;;4.40;;
24223;SDS011;12359;49.716;9.212;2022-10-31T07:50:04;13.48;;;5.80;;
24223;SDS011;12359;49.716;9.212;2022-10-31T07:52:31;12.27;;;4.97;;
24223;SDS011;12359;49.716;9.212;2022-10-31T07:54:56;13.50;;;4.97;;
24223;SDS011;12359;49.716;9.212;2022-10-31T07:57:22;9.85;;;5.68;;
24223;SDS011;12359;49.716;9.212;2022-10-31T07:59:48;11.63;;;3.78;;
24223;SDS011;12359;49.716;9.212;2022-10-31T08:02:13;10.02;;;3.83;;
24223;SDS011;12359;49.716;9.212;2022-10-31T08:04:39;6.47;;;3.67;;
24223;SDS011;12359;49.716;9.212;2022-10-31T08:07:04;9.68;;;3.97;;
24223;SDS011;12359;49.716;9.212;2022-10-31T08:09:30;6.32;;;4.03;;
24223;SDS011;12359;49.716;9.212;2022-10-31T08:11:56;5.82;;;3.35;;
24223;SDS011;12359;49.716;9.212;2022-10-31T08:14:21;4.80;;;3.30;;
24223;SDS011;12359;49.716;9.212;2022-10-31T08:16:47;5.75;;;3.53;;
24223;SDS011;12359;49.716;9.212;2022-10-31T08:19:13;6.13;;;3.25;;
24223;SDS011;12359;49.716;9.212;2022-10-31T08:21:39;4.63;;;3.45;;
24223;SDS011;12359;49.716;9.212;2022-10-31T08:24:05;7.03;;;3.53;;
24223;SDS011;12359;49.716;9.212;2022-10-31T08:26:30;8.45;;;3.90;;
24223;SDS011;12359;49.716;9.212;2022-10-31T08:28:56;11.38;;;4.40;;
24223;SDS011;12359;49.716;9.212;2022-10-31T08:31:25;6.32;;;3.75;;
24223;SDS011;12359;49.716;9.212;2022-10-31T08:33:52;7.13;;;3.30;;
24223;SDS011;12359;49.716;9.212;2022-10-31T08:36:18;6.32;;;3.63;;
24223;SDS011;12359;49.716;9.212;2022-10-31T08:38:46;5.07;;;3.58;;
24223;SDS011;12359;49.716;9.212;2022-10-31T08:41:12;6.95;;;2.85;;
24223;SDS011;12359;49.716;9.212;2022-10-31T08:43:41;4.50;;;3.53;;
24223;SDS011;12359;49.716;9.212;2022-10-31T08:46:09;4.15;;;3.30;;
24223;SDS011;12359;49.716;9.212;2022-10-31T08:48:34;7.55;;;3.97;;
24223;SDS011;12359;49.716;9.212;2022-10-31T08:51:00;7.43;;;3.65;;
24223;SDS011;12359;49.716;9.212;2022-10-31T08:53:26;11.40;;;4.05;;
24223;SDS011;12359;49.716;9.212;2022-10-31T08:55:53;6.68;;;4.95;;
24223;SDS011;12359;49.716;9.212;2022-10-31T08:58:21;7.93;;;4.13;;
24223;SDS011;12359;49.716;9.212;2022-10-31T09:00:48;5.25;;;3.17;;
24223;SDS011;12359;49.716;9.212;2022-10-31T09:03:16;6.57;;;3.78;;
24223;SDS011;12359;49.716;9.212;2022-10-31T09:05:46;7.82;;;3.20;;
24223;SDS011;12359;49.716;9.212;2022-10-31T09:08:12;5.97;;;3.70;;
24223;SDS011;12359;49.716;9.212;2022-10-31T09:10:39;7.85;;;3.47;;
24223;SDS011;12359;49.716;9.212;2022-10-31T09:13:06;12.02;;;4.13;;
24223;SDS011;12359;49.716;9.212;2022-10-31T09:15:36;4.82;;;4.35;;
24223;SDS011;12359;49.716;9.212;2022-10-31T09:18:03;6.70;;;3.72;;
24223;SDS011;12359;49.716;9.212;2022-10-31T09:20:30;4.03;;;3.13;;
24223;SDS011;12359;49.716;9.212;2022-10-31T09:22:57;4.68;;;3.38;;
24223;SDS011;12359;49.716;9.212;2022-10-31T09:25:28;7.10;;;3.40;;
24223;SDS011;12359;49.716;9.212;2022-10-31T09:27:57;5.32;;;3.42;;
24223;SDS011;12359;49.716;9.212;2022-10-31T09:30:28;8.68;;;3.78;;
24223;SDS011;12359;49.716;9.212;2022-10-31T09:32:55;14.23;;;4.47;;
24223;SDS011;12359;49.716;9.212;2022-10-31T09:35:22;6.00;;;3.55;;
24223;SDS011;12359;49.716;9.212;2022-10-31T09:37:53;7.15;;;3.97;;
24223;SDS011;12359;49.716;9.212;2022-10-31T09:40:24;14.07;;;4.05;;
24223;SDS011;12359;49.716;9.212;2022-10-31T09:46:07;4.30;;;3.40;;
24223;SDS011;12359;49.716;9.212;2022-10-31T09:51:42;7.93;;;3.72;;
24223;SDS011;12359;49.716;9.212;2022-10-31T09:56:37;7.68;;;3.92;;
24223;SDS011;12359;49.716;9.212;2022-10-31T09:59:04;5.65;;;3.53;;
24223;SDS011;12359;49.716;9.212;2022-10-31T10:07:00;4.25;;;3.80;;
24223;SDS011;12359;49.716;9.212;2022-10-31T10:09:33;4.60;;;3.53;;
24223;SDS011;12359;49.716;9.212;2022-10-31T10:26:15;7.55;;;3.70;;
24223;SDS011;12359;49.716;9.212;2022-10-31T10:28:51;5.80;;;3.83;;
24223;SDS011;12359;49.716;9.212;2022-10-31T10:31:27;4.07;;;3.35;;
24223;SDS011;12359;49.716;9.212;2022-10-31T10:34:01;7.05;;;4.00;;
24223;SDS011;12359;49.716;9.212;2022-10-31T10:39:37;4.97;;;3.97;;
24223;SDS011;12359;49.716;9.212;2022-10-31T10:42:13;6.35;;;4.00;;
24223;SDS011;12359;49.716;9.212;2022-10-31T10:44:58;4.43;;;3.63;;
24223;SDS011;12359;49.716;9.212;2022-10-31T10:47:44;4.88;;;4.35;;
24223;SDS011;12359;49.716;9.212;2022-10-31T10:50:19;4.03;;;3.65;;
24223;SDS011;12359;49.716;9.212;2022-10-31T10:58:03;4.82;;;4.22;;
24223;SDS011;12359;49.716;9.212;2022-10-31T11:00:32;6.72;;;4.50;;
24223;SDS011;12359;49.716;9.212;2022-10-31T11:03:03;6.70;;;4.78;;
24223;SDS011;12359;49.716;9.212;2022-10-31T11:05:36;9.57;;;4.85;;
24223;SDS011;12359;49.716;9.212;2022-10-31T11:08:06;14.70;;;5.22;;
24223;SDS011;12359;49.716;9.212;2022-10-31T11:10:32;6.45;;;5.07;;
24223;SDS011;12359;49.716;9.212;2022-10-31T11:15:31;4.63;;;4.13;;
24223;SDS011;12359;49.716;9.212;2022-10-31T11:18:01;6.00;;;4.22;;
24223;SDS011;12359;49.716;9.212;2022-10-31T11:23:03;7.63;;;4.55;;
24223;SDS011;12359;49.716;9.212;2022-10-31T11:26:03;6.82;;;4.43;;
24223;SDS011;12359;49.716;9.212;2022-10-31T11:28:32;5.28;;;4.82;;
24223;SDS011;12359;49.716;9.212;2022-10-31T11:31:00;7.75;;;4.65;;
24223;SDS011;12359;49.716;9.212;2022-10-31T11:36:04;12.18;;;5.55;;
24223;SDS011;12359;49.716;9.212;2022-10-31T11:38:50;9.48;;;5.25;;
24223;SDS011;12359;49.716;9.212;2022-10-31T11:43:51;8.57;;;6.05;;
24223;SDS011;12359;49.716;9.212;2022-10-31T11:46:45;6.03;;;5.43;;
24223;SDS011;12359;49.716;9.212;2022-10-31T11:49:26;6.07;;;4.50;;
24223;SDS011;12359;49.716;9.212;2022-10-31T11:52:04;6.95;;;5.10;;
24223;SDS011;12359;49.716;9.212;2022-10-31T11:54:41;8.25;;;5.75;;
24223;SDS011;12359;49.716;9.212;2022-10-31T11:57:21;7.15;;;5.45;;
24223;SDS011;12359;49.716;9.212;2022-10-31T11:59:53;5.88;;;5.22;;
24223;SDS011;12359;49.716;9.212;2022-10-31T12:02:22;6.72;;;5.70;;
24223;SDS011;12359;49.716;9.212;2022-10-31T12:04:51;8.70;;;4.63;;
24223;SDS011;12359;49.716;9.212;2022-10-31T12:07:31;9.13;;;5.10;;
24223;SDS011;12359;49.716;9.212;2022-10-31T12:09:57;7.28;;;5.25;;
24223;SDS011;12359;49.716;9.212;2022-10-31T12:12:30;12.85;;;5.95;;
24223;SDS011;12359;49.716;9.212;2022-10-31T12:31:42;8.25;;;6.03;;
24223;SDS011;12359;49.716;9.212;2022-10-31T12:42:41;12.15;;;7.10;;
24223;SDS011;12359;49.716;9.212;2022-10-31T12:45:15;9.60;;;6.38;;
24223;SDS011;12359;49.716;9.212;2022-10-31T13:01:39;11.55;;;7.45;;
24223;SDS011;12359;49.716;9.212;2022-10-31T13:06:49;15.00;;;7.95;;
24223;SDS011;12359;49.716;9.212;2022-10-31T13:09:21;15.38;;;9.80;;
24223;SDS011;12359;49.716;9.212;2022-10-31T13:12:10;19.05;;;8.40;;
24223;SDS011;12359;49.716;9.212;2022-10-31T13:14:39;11.75;;;8.02;;
24223;SDS011;12359;49.716;9.212;2022-10-31T13:17:21;14.60;;;10.35;;
24223;SDS011;12359;49.716;9.212;2022-10-31T13:19:51;11.13;;;8.32;;
24223;SDS011;12359;49.716;9.212;2022-10-31T13:22:20;13.80;;;8.50;;
24223;SDS011;12359;49.716;9.212;2022-10-31T13:27:53;12.73;;;7.72;;
24223;SDS011;12359;49.716;9.212;2022-10-31T13:30:29;16.55;;;9.77;;
24223;SDS011;12359;49.716;9.212;2022-10-31T13:38:32;12.65;;;8.85;;
24223;SDS011;12359;49.716;9.212;2022-10-31T13:49:25;14.15;;;9.70;;
24223;SDS011;12359;49.716;9.212;2022-10-31T13:52:05;10.50;;;9.38;;
24223;SDS011;12359;49.716;9.212;2022-10-31T13:54:36;14.55;;;11.13;;
24223;SDS011;12359;49.716;9.212;2022-10-31T13:57:07;14.65;;;11.27;;
24223;SDS011;12359;49.716;9.212;2022-10-31T13:59:46;13.68;;;10.45;;
24223;SDS011;12359;49.716;9.212;2022-10-31T14:02:16;15.52;;;11.48;;
24223;SDS011;12359;49.716;9.212;2022-10-31T14:04:51;14.98;;;11.40;;
24223;SDS011;12359;49.716;9.212;2022-10-31T14:07:24;13.75;;;11.00;;
24223;SDS011;12359;49.716;9.212;2022-10-31T14:14:51;15.98;;;11.48;;
24223;SDS011;12359;49.716;9.212;2022-10-31T14:17:24;15.90;;;12.55;;
24223;SDS011;12359;49.716;9.212;2022-10-31T14:19:59;14.40;;;12.18;;
24223;SDS011;12359;49.716;9.212;2022-10-31T14:22:29;14.50;;;11.07;;
24223;SDS011;12359;49.716;9.212;2022-10-31T14:24:56;14.02;;;11.18;;
24223;SDS011;12359;49.716;9.212;2022-10-31T14:29:53;16.50;;;12.75;;
24223;SDS011;12359;49.716;9.212;2022-10-31T14:32:22;17.15;;;11.52;;
24223;SDS011;12359;49.716;9.212;2022-10-31T14:40:21;15.20;;;12.48;;
24223;SDS011;12359;49.716;9.212;2022-10-31T14:50:53;16.55;;;13.27;;
24223;SDS011;12359;49.716;9.212;2022-10-31T14:55:56;19.13;;;13.48;;
24223;SDS011;12359;49.716;9.212;2022-10-31T14:58:28;13.77;;;11.43;;
24223;SDS011;12359;49.716;9.212;2022-10-31T15:01:02;13.73;;;10.27;;
24223;SDS011;12359;49.716;9.212;2022-10-31T15:05:59;11.25;;;8.90;;
24223;SDS011;12359;49.716;9.212;2022-10-31T15:08:32;10.70;;;9.27;;
24223;SDS011;12359;49.716;9.212;2022-10-31T15:11:09;15.05;;;10.60;;
24223;SDS011;12359;49.716;9.212;2022-10-31T15:13:58;12.48;;;10.25;;
24223;SDS011;12359;49.716;9.212;2022-10-31T15:16:28;13.95;;;10.65;;
24223;SDS011;12359;49.716;9.212;2022-10-31T15:19:00;12.48;;;10.43;;
24223;SDS011;12359;49.716;9.212;2022-10-31T15:21:29;22.02;;;13.32;;
24223;SDS011;12359;49.716;9.212;2022-10-31T15:23:57;13.85;;;11.48;;
24223;SDS011;12359;49.716;9.212;2022-10-31T15:26:30;15.45;;;11.52;;
24223;SDS011;12359;49.716;9.212;2022-10-31T15:31:49;13.35;;;10.88;;
24223;SDS011;12359;49.716;9.212;2022-10-31T15:34:37;16.05;;;11.52;;
24223;SDS011;12359;49.716;9.212;2022-10-31T15:37:07;12.90;;;10.55;;
24223;SDS011;12359;49.716;9.212;2022-10-31T15:39:41;14.20;;;11.07;;
24223;SDS011;12359;49.716;9.212;2022-10-31T15:42:21;15.57;;;11.68;;
24223;SDS011;12359;49.716;9.212;2022-10-31T15:47:28;22.25;;;12.82;;
24223;SDS011;12359;49.716;9.212;2022-10-31T15:49:59;16.48;;;12.55;;
24223;SDS011;12359;49.716;9.212;2022-10-31T15:52:42;21.33;;;14.65;;
24223;SDS011;12359;49.716;9.212;2022-10-31T15:57:41;21.10;;;14.35;;
24223;SDS011;12359;49.716;9.212;2022-10-31T16:02:48;18.88;;;14.23;;
24223;SDS011;12359;49.716;9.212;2022-10-31T16:05:14;19.00;;;15.07;;
24223;SDS011;12359;49.716;9.212;2022-10-31T16:07:51;20.90;;;14.93;;
24223;SDS011;12359;49.716;9.212;2022-10-31T16:10:26;18.88;;;13.68;;
24223;SDS011;12359;49.716;9.212;2022-10-31T16:12:52;22.38;;;15.35;;
24223;SDS011;12359;49.716;9.212;2022-10-31T16:15:19;18.95;;;15.23;;
24223;SDS011;12359;49.716;9.212;2022-10-31T16:17:49;23.98;;;14.30;;
24223;SDS011;12359;49.716;9.212;2022-10-31T16:20:21;23.75;;;16.88;;
24223;SDS011;12359;49.716;9.212;2022-10-31T16:22:50;21.42;;;15.32;;
24223;SDS011;12359;49.716;9.212;2022-10-31T16:25:25;21.65;;;16.50;;
24223;SDS011;12359;49.716;9.212;2022-10-31T16:28:01;21.30;;;15.80;;
24223;SDS011;12359;49.716;9.212;2022-10-31T16:33:03;28.30;;;16.70;;
24223;SDS011;12359;49.716;9.212;2022-10-31T16:35:36;24.05;;;18.55;;
24223;SDS011;12359;49.716;9.212;2022-10-31T16:38:04;24.77;;;16.83;;
24223;SDS011;12359;49.716;9.212;2022-10-31T16:40:30;25.15;;;18.67;;
24223;SDS011;12359;49.716;9.212;2022-10-31T16:42:57;25.60;;;17.48;;
24223;SDS011;12359;49.716;9.212;2022-10-31T16:45:25;19.75;;;15.45;;
24223;SDS011;12359;49.716;9.212;2022-10-31T16:47:52;24.25;;;15.82;;
24223;SDS011;12359;49.716;9.212;2022-10-31T16:50:22;22.60;;;16.13;;
24223;SDS011;12359;49.716;9.212;2022-10-31T16:52:49;20.27;;;16.65;;
24223;SDS011;12359;49.716;9.212;2022-10-31T16:55:16;24.27;;;15.95;;
24223;SDS011;12359;49.716;9.212;2022-10-31T16:57:45;19.50;;;15.23;;
24223;SDS011;12359;49.716;9.212;2022-10-31T17:00:18;26.50;;;17.63;;
24223;SDS011;12359;49.716;9.212;2022-10-31T17:02:46;22.63;;;17.42;;
24223;SDS011;12359;49.716;9.212;2022-10-31T17:05:14;21.92;;;16.08;;
24223;SDS011;12359;49.716;9.212;2022-10-31T17:07:41;25.45;;;17.42;;
24223;SDS011;12359;49.716;9.212;2022-10-31T17:10:07;21.33;;;15.95;;
24223;SDS011;12359;49.716;9.212;2022-10-31T17:12:34;25.17;;;17.80;;
24223;SDS011;12359;49.716;9.212;2022-10-31T17:15:01;26.60;;;17.40;;
24223;SDS011;12359;49.716;9.212;2022-10-31T17:17:27;26.10;;;17.85;;
24223;SDS011;12359;49.716;9.212;2022-10-31T17:19:53;25.25;;;18.08;;
24223;SDS011;12359;49.716;9.212;2022-10-31T17:22:18;30.38;;;18.30;;
24223;SDS011;12359;49.716;9.212;2022-10-31T17:24:44;25.85;;;18.15;;
24223;SDS011;12359;49.716;9.212;2022-10-31T17:27:09;26.10;;;17.58;;
24223;SDS011;12359;49.716;9.212;2022-10-31T17:29:35;20.30;;;17.15;;
24223;SDS011;12359;49.716;9.212;2022-10-31T17:32:01;21.67;;;16.67;;
24223;SDS011;12359;49.716;9.212;2022-10-31T17:34:28;22.77;;;16.65;;
24223;SDS011;12359;49.716;9.212;2022-10-31T17:36:54;21.85;;;16.25;;
24223;SDS011;12359;49.716;9.212;2022-10-31T17:39:20;21.15;;;15.10;;
24223;SDS011;12359;49.716;9.212;2022-10-31T17:41:49;16.38;;;13.63;;
24223;SDS011;12359;49.716;9.212;2022-10-31T17:44:16;18.67;;;14.82;;
24223;SDS011;12359;49.716;9.212;2022-10-31T17:46:42;20.85;;;15.50;;
24223;SDS011;12359;49.716;9.212;2022-10-31T17:49:09;20.02;;;14.25;;
24223;SDS011;12359;49.716;9.212;2022-10-31T17:51:36;20.85;;;14.75;;
24223;SDS011;12359;49.716;9.212;2022-10-31T17:54:02;16.55;;;13.02;;
24223;SDS011;12359;49.716;9.212;2022-10-31T17:56:29;16.23;;;13.25;;